createdAt,value
2019-03-29T00:00:32.557Z,1019.8
2019-03-29T00:01:33.670Z,1019.8
2019-03-29T00:02:35.017Z,1019.8
2019-03-29T00:03:36.373Z,1019.8
2019-03-29T00:04:37.725Z,1019.8
2019-03-29T00:05:39.085Z,1019.8
2019-03-29T00:06:40.431Z,1019.8
2019-03-29T00:07:41.968Z,1019.8
2019-03-29T00:08:43.091Z,1019.8
2019-03-29T00:09:44.431Z,1019.8
2019-03-29T00:10:46.332Z,1019.8
2019-03-29T00:11:47.105Z,1019.8
2019-03-29T00:12:48.460Z,1019.8
2019-03-29T00:13:50.037Z,1019.8
2019-03-29T00:14:51.122Z,1019.8
2019-03-29T00:15:52.466Z,1019.8
2019-03-29T00:16:53.821Z,1019.8
2019-03-29T00:17:55.168Z,1019.8
2019-03-29T00:18:56.522Z,1019.8
2019-03-29T00:19:57.877Z,1019.8
2019-03-29T00:20:59.217Z,1019.8
2019-03-29T00:22:00.570Z,1019.8
2019-03-29T00:23:01.924Z,1019.8
2019-03-29T00:24:07.097Z,1019.8
2019-03-29T00:25:04.578Z,1019.8
2019-03-29T00:26:05.916Z,1019.7
2019-03-29T00:27:07.290Z,1019.7
2019-03-29T00:28:08.631Z,1019.7
2019-03-29T00:29:09.977Z,1019.7
2019-03-29T00:30:11.323Z,1019.7
2019-03-29T00:31:13.246Z,1019.7
2019-03-29T00:32:13.992Z,1019.6
2019-03-29T00:33:15.322Z,1019.6
2019-03-29T00:34:16.682Z,1019.6
2019-03-29T00:35:18.040Z,1019.6
2019-03-29T00:36:19.387Z,1019.6
2019-03-29T00:37:20.736Z,1019.6
2019-03-29T00:38:22.346Z,1019.6
2019-03-29T00:39:23.402Z,1019.6
2019-03-29T00:40:24.752Z,1019.6
2019-03-29T00:41:26.112Z,1019.6
2019-03-29T00:42:27.461Z,1019.6
2019-03-29T00:43:28.815Z,1019.5
2019-03-29T00:44:30.172Z,1019.6
2019-03-29T00:45:31.523Z,1019.6
2019-03-29T00:46:32.862Z,1019.6
2019-03-29T00:47:34.212Z,1019.6
2019-03-29T00:48:35.916Z,1019.5
2019-03-29T00:49:36.917Z,1019.5
2019-03-29T00:50:38.262Z,1019.6
2019-03-29T00:51:39.601Z,1019.6
2019-03-29T00:52:40.957Z,1019.5
2019-03-29T00:53:42.312Z,1019.5
2019-03-29T00:54:43.667Z,1019.5
2019-03-29T00:55:45.030Z,1019.5
2019-03-29T00:56:46.367Z,1019.5
2019-03-29T00:57:47.723Z,1019.5
2019-03-29T00:58:49.106Z,1019.4
2019-03-29T00:59:50.408Z,1019.4
2019-03-29T01:00:51.765Z,1019.4
2019-03-29T01:01:53.344Z,1019.4
2019-03-29T01:02:54.422Z,1019.4
2019-03-29T01:03:55.803Z,1019.5
2019-03-29T01:04:57.116Z,1019.4
2019-03-29T01:05:58.474Z,1019.4
2019-03-29T01:06:59.823Z,1019.5
2019-03-29T01:08:07.666Z,1019.4
2019-03-29T01:09:02.494Z,1019.4
2019-03-29T01:10:03.827Z,1019.4
2019-03-29T01:11:05.178Z,1019.5
2019-03-29T01:12:06.949Z,1019.4
2019-03-29T01:13:07.836Z,1019.3
2019-03-29T01:14:09.202Z,1019.4
2019-03-29T01:15:10.538Z,1019.4
2019-03-29T01:16:11.910Z,1019.5
2019-03-29T01:17:13.251Z,1019.4
2019-03-29T01:18:14.602Z,1019.4
2019-03-29T01:19:15.953Z,1019.4
2019-03-29T01:20:17.303Z,1019.5
2019-03-29T01:21:18.643Z,1019.5
2019-03-29T01:22:20.008Z,1019.4
2019-03-29T01:23:21.353Z,1019.4
2019-03-29T01:24:22.708Z,1019.4
2019-03-29T01:25:24.068Z,1019.5
2019-03-29T01:26:25.411Z,1019.5
2019-03-29T01:27:26.767Z,1019.4
2019-03-29T01:28:28.110Z,1019.4
2019-03-29T01:29:29.491Z,1019.4
2019-03-29T01:30:30.769Z,1019.4
2019-03-29T01:31:32.121Z,1019.4
2019-03-29T01:32:33.463Z,1019.4
2019-03-29T01:33:34.823Z,1019.4
2019-03-29T01:34:36.167Z,1019.4
2019-03-29T01:35:37.513Z,1019.4
2019-03-29T01:36:38.863Z,1019.4
2019-03-29T01:37:40.213Z,1019.4
2019-03-29T01:38:41.595Z,1019.4
2019-03-29T01:39:43.031Z,1019.4
2019-03-29T01:40:44.267Z,1019.4
2019-03-29T01:41:45.607Z,1019.3
2019-03-29T01:42:46.978Z,1019.3
2019-03-29T01:43:48.323Z,1019.4
2019-03-29T01:44:49.685Z,1019.3
2019-03-29T01:45:51.026Z,1019.4
2019-03-29T01:46:52.375Z,1019.4
2019-03-29T01:47:53.700Z,1019.4
2019-03-29T01:48:55.063Z,1019.3
2019-03-29T01:49:56.391Z,1019.3
2019-03-29T01:50:57.757Z,1019.3
2019-03-29T01:51:59.112Z,1019.3
2019-03-29T01:53:00.463Z,1019.2
2019-03-29T01:54:01.803Z,1019.2
2019-03-29T01:55:03.153Z,1019.2
2019-03-29T01:56:04.524Z,1019.2
2019-03-29T01:57:06.288Z,1019.3
2019-03-29T01:58:07.169Z,1019.2
2019-03-29T01:59:08.514Z,1019.2
2019-03-29T02:00:09.873Z,1019.2
2019-03-29T02:01:11.223Z,1019.1
2019-03-29T02:02:12.575Z,1019.1
2019-03-29T02:03:13.923Z,1019.1
2019-03-29T02:04:15.272Z,1019.1
2019-03-29T02:05:16.618Z,1019.1
2019-03-29T02:06:17.963Z,1019.1
2019-03-29T02:07:19.310Z,1019.0
2019-03-29T02:08:34.687Z,1019.0
2019-03-29T02:09:21.965Z,1019.0
2019-03-29T02:10:23.316Z,1019.0
2019-03-29T02:11:24.662Z,1019.0
2019-03-29T02:12:26.014Z,1019.0
2019-03-29T02:13:27.363Z,1019.0
2019-03-29T02:14:28.708Z,1019.0
2019-03-29T02:15:30.054Z,1019.0
2019-03-29T02:16:31.404Z,1019.0
2019-03-29T02:17:32.750Z,1019.0
2019-03-29T02:18:34.100Z,1019.0
2019-03-29T02:19:35.449Z,1019.0
2019-03-29T02:20:36.799Z,1019.0
2019-03-29T02:21:38.148Z,1019.0
2019-03-29T02:22:39.502Z,1019.0
2019-03-29T02:23:40.850Z,1019.0
2019-03-29T02:24:42.202Z,1019.0
2019-03-29T02:25:43.553Z,1019.0
2019-03-29T02:26:44.889Z,1019.0
2019-03-29T02:27:46.244Z,1019.0
2019-03-29T02:28:47.593Z,1019.0
2019-03-29T02:29:48.945Z,1019.0
2019-03-29T02:30:50.297Z,1018.9
2019-03-29T02:31:51.641Z,1018.9
2019-03-29T02:32:53.130Z,1019.0
2019-03-29T02:33:54.305Z,1019.0
2019-03-29T02:34:55.656Z,1019.0
2019-03-29T02:35:57.006Z,1018.9
2019-03-29T02:36:58.362Z,1018.9
2019-03-29T02:37:59.714Z,1018.9
2019-03-29T02:39:01.054Z,1018.9
2019-03-29T02:40:02.423Z,1018.9
2019-03-29T02:41:03.771Z,1018.9
2019-03-29T02:42:05.120Z,1018.9
2019-03-29T02:43:06.489Z,1018.9
2019-03-29T02:44:08.018Z,1018.8
2019-03-29T02:45:09.131Z,1018.8
2019-03-29T02:46:10.484Z,1018.8
2019-03-29T02:47:11.834Z,1018.8
2019-03-29T02:48:13.186Z,1018.8
2019-03-29T02:49:14.535Z,1018.8
2019-03-29T02:50:15.879Z,1018.7
2019-03-29T02:51:17.233Z,1018.7
2019-03-29T02:52:18.605Z,1018.7
2019-03-29T02:53:19.940Z,1018.7
2019-03-29T02:54:21.321Z,1018.8
2019-03-29T02:55:22.637Z,1018.7
2019-03-29T02:56:23.989Z,1018.7
2019-03-29T02:57:25.339Z,1018.7
2019-03-29T02:58:26.699Z,1018.7
2019-03-29T02:59:28.102Z,1018.6
2019-03-29T03:00:29.392Z,1018.7
2019-03-29T03:01:30.736Z,1018.7
2019-03-29T03:02:32.104Z,1018.7
2019-03-29T03:03:33.522Z,1018.7
2019-03-29T03:04:34.784Z,1018.7
2019-03-29T03:05:36.137Z,1018.7
2019-03-29T03:06:37.490Z,1018.7
2019-03-29T03:07:38.834Z,1018.7
2019-03-29T03:08:40.184Z,1018.7
2019-03-29T03:09:41.526Z,1018.7
2019-03-29T03:10:42.878Z,1018.7
2019-03-29T03:11:44.225Z,1018.7
2019-03-29T03:12:45.582Z,1018.7
2019-03-29T03:13:46.891Z,1018.7
2019-03-29T03:14:48.246Z,1018.7
2019-03-29T03:15:49.611Z,1018.7
2019-03-29T03:16:50.950Z,1018.7
2019-03-29T03:17:52.300Z,1018.7
2019-03-29T03:18:53.655Z,1018.7
2019-03-29T03:19:55.008Z,1018.7
2019-03-29T03:20:56.343Z,1018.7
2019-03-29T03:21:57.696Z,1018.7
2019-03-29T03:22:59.036Z,1018.7
2019-03-29T03:24:00.396Z,1018.7
2019-03-29T03:25:01.737Z,1018.7
2019-03-29T03:26:03.091Z,1018.7
2019-03-29T03:27:04.461Z,1018.6
2019-03-29T03:28:05.796Z,1018.7
2019-03-29T03:29:07.137Z,1018.7
2019-03-29T03:30:08.527Z,1018.7
2019-03-29T03:31:09.850Z,1018.6
2019-03-29T03:32:11.211Z,1018.6
2019-03-29T03:33:12.539Z,1018.6
2019-03-29T03:34:13.892Z,1018.6
2019-03-29T03:35:15.250Z,1018.6
2019-03-29T03:36:16.586Z,1018.6
2019-03-29T03:37:17.934Z,1018.6
2019-03-29T03:38:19.283Z,1018.6
2019-03-29T03:39:31.401Z,1018.6
2019-03-29T03:40:21.948Z,1018.5
2019-03-29T03:41:23.297Z,1018.6
2019-03-29T03:42:24.652Z,1018.6
2019-03-29T03:43:25.996Z,1018.6
2019-03-29T03:44:27.332Z,1018.6
2019-03-29T03:45:28.687Z,1018.6
2019-03-29T03:46:30.044Z,1018.6
2019-03-29T03:47:31.393Z,1018.6
2019-03-29T03:48:32.751Z,1018.6
2019-03-29T03:49:34.095Z,1018.5
2019-03-29T03:50:35.442Z,1018.5
2019-03-29T03:51:36.792Z,1018.5
2019-03-29T03:52:38.141Z,1018.6
2019-03-29T03:53:39.502Z,1018.6
2019-03-29T03:54:40.835Z,1018.5
2019-03-29T03:55:42.229Z,1018.5
2019-03-29T03:56:43.543Z,1018.6
2019-03-29T03:57:44.891Z,1018.6
2019-03-29T03:58:46.250Z,1018.6
2019-03-29T03:59:47.588Z,1018.6
2019-03-29T04:00:48.945Z,1018.6
2019-03-29T04:01:50.295Z,1018.6
2019-03-29T04:02:51.650Z,1018.6
2019-03-29T04:03:52.997Z,1018.7
2019-03-29T04:04:54.345Z,1018.7
2019-03-29T04:05:55.700Z,1018.6
2019-03-29T04:06:57.054Z,1018.6
2019-03-29T04:07:58.404Z,1018.6
2019-03-29T04:08:59.761Z,1018.7
2019-03-29T04:10:01.126Z,1018.6
2019-03-29T04:11:02.468Z,1018.7
2019-03-29T04:12:03.837Z,1018.7
2019-03-29T04:13:05.165Z,1018.7
2019-03-29T04:14:06.518Z,1018.7
2019-03-29T04:15:07.873Z,1018.8
2019-03-29T04:16:09.218Z,1018.7
2019-03-29T04:17:10.580Z,1018.8
2019-03-29T04:18:15.400Z,1018.8
2019-03-29T04:19:13.230Z,1018.8
2019-03-29T04:20:14.579Z,1018.8
2019-03-29T04:21:16.065Z,1018.8
2019-03-29T04:22:17.431Z,1018.7
2019-03-29T04:23:18.782Z,1018.8
2019-03-29T04:24:20.139Z,1018.8
2019-03-29T04:25:21.485Z,1018.7
2019-03-29T04:26:22.828Z,1018.8
2019-03-29T04:27:24.173Z,1018.7
2019-03-29T04:28:25.523Z,1018.7
2019-03-29T04:29:26.876Z,1018.8
2019-03-29T04:30:28.228Z,1018.7
2019-03-29T04:31:29.568Z,1018.8
2019-03-29T04:32:30.921Z,1018.8
2019-03-29T04:33:32.263Z,1018.8
2019-03-29T04:34:33.624Z,1018.8
2019-03-29T04:35:34.966Z,1018.8
2019-03-29T04:36:36.324Z,1018.8
2019-03-29T04:37:37.667Z,1018.8
2019-03-29T04:38:39.025Z,1018.8
2019-03-29T04:39:40.374Z,1018.8
2019-03-29T04:40:41.727Z,1018.8
2019-03-29T04:41:43.083Z,1018.8
2019-03-29T04:42:44.431Z,1018.7
2019-03-29T04:43:45.786Z,1018.8
2019-03-29T04:44:47.137Z,1018.7
2019-03-29T04:45:48.482Z,1018.7
2019-03-29T04:46:49.842Z,1018.7
2019-03-29T04:47:51.181Z,1018.7
2019-03-29T04:48:52.527Z,1018.7
2019-03-29T04:49:53.883Z,1018.8
2019-03-29T04:50:55.232Z,1018.7
2019-03-29T04:51:56.587Z,1018.7
2019-03-29T04:52:57.940Z,1018.8
2019-03-29T04:53:59.292Z,1018.7
2019-03-29T04:55:00.651Z,1018.8
2019-03-29T04:56:01.998Z,1018.8
2019-03-29T04:57:03.346Z,1018.7
2019-03-29T04:58:04.778Z,1018.7
2019-03-29T04:59:06.003Z,1018.7
2019-03-29T05:00:07.468Z,1018.7
2019-03-29T05:01:08.823Z,1018.7
2019-03-29T05:02:10.167Z,1018.7
2019-03-29T05:03:11.522Z,1018.7
2019-03-29T05:04:12.867Z,1018.7
2019-03-29T05:05:14.226Z,1018.7
2019-03-29T05:06:15.578Z,1018.7
2019-03-29T05:07:16.932Z,1018.7
2019-03-29T05:08:18.282Z,1018.6
2019-03-29T05:09:19.626Z,1018.6
2019-03-29T05:10:21.929Z,1018.7
2019-03-29T05:11:22.289Z,1018.7
2019-03-29T05:12:23.641Z,1018.7
2019-03-29T05:13:25.004Z,1018.7
2019-03-29T05:14:26.362Z,1018.7
2019-03-29T05:15:27.716Z,1018.7
2019-03-29T05:16:29.053Z,1018.7
2019-03-29T05:17:30.406Z,1018.7
2019-03-29T05:18:31.757Z,1018.7
2019-03-29T05:19:33.122Z,1018.7
2019-03-29T05:20:34.473Z,1018.7
2019-03-29T05:21:35.826Z,1018.8
2019-03-29T05:22:37.177Z,1018.7
2019-03-29T05:23:38.528Z,1018.8
2019-03-29T05:24:39.887Z,1018.8
2019-03-29T05:25:41.243Z,1018.7
2019-03-29T05:26:42.592Z,1018.8
2019-03-29T05:27:43.983Z,1018.8
2019-03-29T05:28:45.337Z,1018.8
2019-03-29T05:29:46.688Z,1018.8
2019-03-29T05:30:48.041Z,1018.8
2019-03-29T05:31:49.396Z,1018.8
2019-03-29T05:32:50.745Z,1018.7
2019-03-29T05:33:52.112Z,1018.7
2019-03-29T05:34:53.463Z,1018.8
2019-03-29T05:35:54.821Z,1018.7
2019-03-29T05:36:58.352Z,1018.7
2019-03-29T05:37:57.555Z,1018.7
2019-03-29T05:38:58.846Z,1018.7
2019-03-29T05:40:00.347Z,1018.8
2019-03-29T05:41:01.512Z,1018.7
2019-03-29T05:42:02.877Z,1018.7
2019-03-29T05:43:04.235Z,1018.8
2019-03-29T05:44:05.589Z,1018.8
2019-03-29T05:45:06.949Z,1018.7
2019-03-29T05:46:08.299Z,1018.7
2019-03-29T05:47:09.644Z,1018.8
2019-03-29T05:48:10.998Z,1018.7
2019-03-29T05:49:12.354Z,1018.7
2019-03-29T05:50:13.724Z,1018.7
2019-03-29T05:51:15.060Z,1018.7
2019-03-29T05:52:16.462Z,1018.7
2019-03-29T05:53:17.773Z,1018.7
2019-03-29T05:54:19.125Z,1018.7
2019-03-29T05:55:32.027Z,1018.8
2019-03-29T05:56:21.808Z,1018.8
2019-03-29T05:57:23.182Z,1018.8
2019-03-29T05:58:24.542Z,1018.8
2019-03-29T05:59:25.890Z,1018.8
2019-03-29T06:00:27.247Z,1018.8
2019-03-29T06:01:28.597Z,1018.7
2019-03-29T06:02:29.952Z,1018.7
2019-03-29T06:03:31.309Z,1018.8
2019-03-29T06:04:32.685Z,1018.7
2019-03-29T06:05:34.041Z,1018.7
2019-03-29T06:06:35.386Z,1018.7
2019-03-29T06:07:36.740Z,1018.7
2019-03-29T06:08:38.095Z,1018.7
2019-03-29T06:09:39.455Z,1018.7
2019-03-29T06:10:48.835Z,1018.8
2019-03-29T06:11:42.128Z,1018.7
2019-03-29T06:12:43.490Z,1018.7
2019-03-29T06:13:44.848Z,1018.8
2019-03-29T06:14:46.204Z,1018.7
2019-03-29T06:15:47.569Z,1018.7
2019-03-29T06:16:48.938Z,1018.7
2019-03-29T06:17:50.292Z,1018.7
2019-03-29T06:18:51.664Z,1018.7
2019-03-29T06:19:53.017Z,1018.7
2019-03-29T06:20:54.374Z,1018.7
2019-03-29T06:21:55.736Z,1018.7
2019-03-29T06:22:57.092Z,1018.7
2019-03-29T06:23:58.445Z,1018.7
2019-03-29T06:24:59.811Z,1018.7
2019-03-29T06:26:01.161Z,1018.7
2019-03-29T06:27:02.518Z,1018.7
2019-03-29T06:28:03.874Z,1018.7
2019-03-29T06:29:05.229Z,1018.7
2019-03-29T06:30:06.589Z,1018.7
2019-03-29T06:31:07.945Z,1018.7
2019-03-29T06:32:09.314Z,1018.7
2019-03-29T06:33:10.675Z,1018.7
2019-03-29T06:34:12.038Z,1018.7
2019-03-29T06:35:13.386Z,1018.8
2019-03-29T06:36:14.728Z,1018.8
2019-03-29T06:37:16.094Z,1018.9
2019-03-29T06:38:17.454Z,1018.9
2019-03-29T06:39:21.164Z,1018.9
2019-03-29T06:40:20.131Z,1018.8
2019-03-29T06:41:21.493Z,1018.9
2019-03-29T06:42:22.890Z,1018.9
2019-03-29T06:43:24.237Z,1018.8
2019-03-29T06:44:25.615Z,1018.8
2019-03-29T06:45:26.963Z,1018.9
2019-03-29T06:46:28.329Z,1018.9
2019-03-29T06:47:29.689Z,1018.9
2019-03-29T06:48:31.043Z,1019.0
2019-03-29T06:49:32.400Z,1019.1
2019-03-29T06:50:33.811Z,1019.2
2019-03-29T06:51:35.084Z,1019.0
2019-03-29T06:52:36.476Z,1019.2
2019-03-29T06:53:37.834Z,1019.2
2019-03-29T06:54:39.200Z,1019.2
2019-03-29T06:55:40.564Z,1019.2
2019-03-29T06:56:41.908Z,1019.2
2019-03-29T06:57:43.279Z,1019.2
2019-03-29T06:58:44.632Z,1019.2
2019-03-29T06:59:46.639Z,1019.2
2019-03-29T07:00:47.313Z,1019.1
2019-03-29T07:01:48.675Z,1019.2
2019-03-29T07:02:50.028Z,1019.1
2019-03-29T07:03:51.388Z,1019.1
2019-03-29T07:04:52.744Z,1019.2
2019-03-29T07:05:54.101Z,1019.2
2019-03-29T07:06:55.468Z,1019.3
2019-03-29T07:07:56.939Z,1019.4
2019-03-29T07:08:58.308Z,1019.3
2019-03-29T07:09:59.666Z,1019.2
2019-03-29T07:11:01.038Z,1019.2
2019-03-29T07:12:02.406Z,1019.2
2019-03-29T07:13:03.755Z,1019.2
2019-03-29T07:14:05.120Z,1019.1
2019-03-29T07:15:06.491Z,1019.2
2019-03-29T07:16:07.855Z,1019.1
2019-03-29T07:17:10.337Z,1019.1
2019-03-29T07:18:10.551Z,1019.2
2019-03-29T07:19:11.910Z,1019.2
2019-03-29T07:20:13.278Z,1019.1
2019-03-29T07:21:21.620Z,1019.2
2019-03-29T07:22:15.974Z,1019.2
2019-03-29T07:23:17.345Z,1019.2
2019-03-29T07:24:18.708Z,1019.2
2019-03-29T07:25:20.080Z,1019.2
2019-03-29T07:26:21.453Z,1019.2
2019-03-29T07:27:22.818Z,1019.1
2019-03-29T07:28:24.194Z,1019.2
2019-03-29T07:29:25.577Z,1019.1
2019-03-29T07:30:26.980Z,1019.1
2019-03-29T07:31:28.359Z,1019.1
2019-03-29T07:32:29.745Z,1019.1
2019-03-29T07:33:31.106Z,1019.2
2019-03-29T07:34:32.478Z,1019.2
2019-03-29T07:35:33.841Z,1019.2
2019-03-29T07:36:35.216Z,1019.2
2019-03-29T07:37:36.592Z,1019.3
2019-03-29T07:38:37.958Z,1019.3
2019-03-29T07:39:39.335Z,1019.2
2019-03-29T07:40:40.700Z,1019.2
2019-03-29T07:41:42.074Z,1019.2
2019-03-29T07:42:43.432Z,1019.2
2019-03-29T07:43:44.824Z,1019.2
2019-03-29T07:44:46.201Z,1019.2
2019-03-29T07:45:47.571Z,1019.2
2019-03-29T07:46:48.933Z,1019.2
2019-03-29T07:47:50.307Z,1019.1
2019-03-29T07:48:51.674Z,1019.1
2019-03-29T07:49:53.054Z,1019.2
2019-03-29T07:50:54.436Z,1019.1
2019-03-29T07:51:55.811Z,1019.1
2019-03-29T07:52:57.171Z,1019.1
2019-03-29T07:53:58.569Z,1019.3
2019-03-29T07:54:59.910Z,1019.0
2019-03-29T07:56:01.285Z,1019.1
2019-03-29T07:57:02.660Z,1019.2
2019-03-29T07:58:04.025Z,1019.1
2019-03-29T07:59:05.391Z,1019.1
2019-03-29T08:00:06.758Z,1019.0
2019-03-29T08:01:08.494Z,1019.0
2019-03-29T08:02:09.546Z,1019.0
2019-03-29T08:03:10.917Z,1019.0
2019-03-29T08:04:12.286Z,1019.1
2019-03-29T08:05:13.662Z,1019.0
2019-03-29T08:06:15.020Z,1019.0
2019-03-29T08:07:26.629Z,1019.0
2019-03-29T08:08:23.978Z,1019.1
2019-03-29T08:09:22.525Z,1019.0
2019-03-29T08:10:27.504Z,1019.0
2019-03-29T08:11:26.351Z,1019.1
2019-03-29T08:12:23.122Z,1019.0
2019-03-29T08:13:24.477Z,1019.1
2019-03-29T08:14:25.850Z,1019.1
2019-03-29T08:15:27.221Z,1019.0
2019-03-29T08:16:28.591Z,1019.1
2019-03-29T08:17:29.984Z,1019.0
2019-03-29T08:18:31.354Z,1019.1
2019-03-29T08:19:32.719Z,1019.1
2019-03-29T08:20:40.624Z,1019.1
2019-03-29T08:21:35.542Z,1019.1
2019-03-29T08:22:36.921Z,1019.1
2019-03-29T08:23:38.290Z,1019.0
2019-03-29T08:24:39.669Z,1019.1
2019-03-29T08:25:41.037Z,1019.1
2019-03-29T08:26:42.417Z,1019.0
2019-03-29T08:27:43.810Z,1019.0
2019-03-29T08:28:45.171Z,1018.9
2019-03-29T08:29:46.539Z,1018.9
2019-03-29T08:30:47.914Z,1018.8
2019-03-29T08:31:49.295Z,1018.8
2019-03-29T08:32:50.750Z,1018.9
2019-03-29T08:33:52.075Z,1019.0
2019-03-29T08:34:53.455Z,1019.1
2019-03-29T08:35:54.852Z,1018.9
2019-03-29T08:36:56.229Z,1018.8
2019-03-29T08:37:57.602Z,1018.9
2019-03-29T08:38:58.977Z,1018.9
2019-03-29T08:40:00.389Z,1019.0
2019-03-29T08:41:01.777Z,1019.1
2019-03-29T08:42:03.115Z,1018.9
2019-03-29T08:43:04.500Z,1019.0
2019-03-29T08:44:05.933Z,1019.0
2019-03-29T08:45:07.207Z,1019.0
2019-03-29T08:46:08.584Z,1019.0
2019-03-29T08:47:09.950Z,1018.9
2019-03-29T08:48:11.331Z,1018.8
2019-03-29T08:49:12.703Z,1019.1
2019-03-29T08:50:14.088Z,1019.1
2019-03-29T08:51:15.451Z,1019.0
2019-03-29T08:52:16.922Z,1018.9
2019-03-29T08:53:18.297Z,1018.9
2019-03-29T08:54:19.682Z,1019.0
2019-03-29T08:55:21.097Z,1018.9
2019-03-29T08:56:22.505Z,1018.9
2019-03-29T08:57:23.847Z,1018.9
2019-03-29T08:58:25.228Z,1018.8
2019-03-29T08:59:26.592Z,1018.9
2019-03-29T09:00:27.974Z,1018.9
2019-03-29T09:01:29.337Z,1018.9
2019-03-29T09:02:30.777Z,1018.9
2019-03-29T09:03:32.053Z,1019.0
2019-03-29T09:04:33.427Z,1018.9
2019-03-29T09:05:34.800Z,1018.9
2019-03-29T09:06:36.162Z,1018.9
2019-03-29T09:07:44.431Z,1018.9
2019-03-29T09:08:38.874Z,1018.8
2019-03-29T09:09:40.252Z,1018.9
2019-03-29T09:10:41.622Z,1018.8
2019-03-29T09:11:42.990Z,1018.9
2019-03-29T09:12:44.357Z,1018.8
2019-03-29T09:13:45.775Z,1018.8
2019-03-29T09:14:47.137Z,1018.8
2019-03-29T09:15:48.528Z,1018.8
2019-03-29T09:16:49.907Z,1018.7
2019-03-29T09:17:51.327Z,1018.8
2019-03-29T09:18:52.702Z,1018.9
2019-03-29T09:19:54.162Z,1018.8
2019-03-29T09:20:55.561Z,1018.8
2019-03-29T09:21:56.992Z,1018.8
2019-03-29T09:22:58.449Z,1018.8
2019-03-29T09:23:59.911Z,1018.8
2019-03-29T09:25:01.376Z,1018.6
2019-03-29T09:26:02.812Z,1018.7
2019-03-29T09:27:04.171Z,1018.6
2019-03-29T09:28:05.558Z,1018.5
2019-03-29T09:29:06.991Z,1018.6
2019-03-29T09:30:08.310Z,1018.6
2019-03-29T09:31:09.725Z,1018.6
2019-03-29T09:32:11.141Z,1018.6
2019-03-29T09:33:12.541Z,1018.6
2019-03-29T09:34:13.937Z,1018.5
2019-03-29T09:35:15.297Z,1018.5
2019-03-29T09:36:16.667Z,1018.5
2019-03-29T09:37:18.086Z,1018.6
2019-03-29T09:38:19.471Z,1018.5
2019-03-29T09:39:20.836Z,1018.5
2019-03-29T09:40:22.211Z,1018.5
2019-03-29T09:41:23.588Z,1018.6
2019-03-29T09:42:29.464Z,1018.7
2019-03-29T09:43:26.732Z,1018.5
2019-03-29T09:44:27.657Z,1018.5
2019-03-29T09:45:29.026Z,1018.5
2019-03-29T09:46:30.407Z,1018.5
2019-03-29T09:47:37.060Z,1018.5
2019-03-29T09:48:34.602Z,1018.5
2019-03-29T09:49:34.511Z,1018.5
2019-03-29T09:50:35.878Z,1018.5
2019-03-29T09:51:37.309Z,1018.4
2019-03-29T09:52:38.644Z,1018.3
2019-03-29T09:53:41.365Z,1018.4
2019-03-29T09:54:41.356Z,1018.5
2019-03-29T09:55:45.591Z,1018.5
2019-03-29T09:56:44.058Z,1018.4
2019-03-29T09:57:45.449Z,1018.4
2019-03-29T09:58:46.824Z,1018.4
2019-03-29T09:59:48.198Z,1018.3
2019-03-29T10:00:49.572Z,1018.3
2019-03-29T10:01:53.787Z,1018.3
2019-03-29T10:02:52.272Z,1018.3
2019-03-29T10:03:53.649Z,1018.3
2019-03-29T10:04:55.025Z,1018.3
2019-03-29T10:05:56.394Z,1018.2
2019-03-29T10:06:57.782Z,1018.3
2019-03-29T10:07:59.157Z,1018.2
2019-03-29T10:09:00.529Z,1018.4
2019-03-29T10:10:01.923Z,1018.2
2019-03-29T10:11:03.289Z,1018.3
2019-03-29T10:12:04.664Z,1018.0
2019-03-29T10:13:06.040Z,1018.3
2019-03-29T10:14:07.409Z,1018.4
2019-03-29T10:15:08.774Z,1018.4
2019-03-29T10:16:10.178Z,1017.8
2019-03-29T10:17:11.548Z,1017.8
2019-03-29T10:18:12.928Z,1018.5
2019-03-29T10:19:14.392Z,1018.4
2019-03-29T10:20:15.645Z,1018.4
2019-03-29T10:21:17.410Z,1018.4
2019-03-29T10:22:18.372Z,1018.3
2019-03-29T10:23:19.730Z,1018.4
2019-03-29T10:24:21.158Z,1017.8
2019-03-29T10:25:22.528Z,1017.8
2019-03-29T10:26:23.920Z,1017.9
2019-03-29T10:27:25.283Z,1018.1
2019-03-29T10:28:26.663Z,1018.3
2019-03-29T10:29:28.066Z,1018.3
2019-03-29T10:30:29.417Z,1018.3
2019-03-29T10:31:32.345Z,1018.1
2019-03-29T10:32:32.124Z,1018.3
2019-03-29T10:34:12.994Z,1018.2
2019-03-29T10:35:14.373Z,1017.8
2019-03-29T10:36:15.753Z,1018.3
2019-03-29T10:37:17.134Z,1017.7
2019-03-29T10:38:18.761Z,1017.6
2019-03-29T10:39:19.843Z,1018.3
2019-03-29T10:40:21.814Z,1017.6
2019-03-29T10:41:22.926Z,1017.6
2019-03-29T10:42:23.904Z,1017.9
2019-03-29T10:43:25.269Z,1017.6
2019-03-29T10:44:26.644Z,1017.6
2019-03-29T10:45:28.023Z,1017.7
2019-03-29T10:46:29.394Z,1017.7
2019-03-29T10:47:43.305Z,1018.4
2019-03-29T10:48:32.133Z,1018.3
2019-03-29T10:49:33.544Z,1018.3
2019-03-29T10:50:34.917Z,1018.1
2019-03-29T10:51:36.420Z,1018.1
2019-03-29T10:52:37.784Z,1018.1
2019-03-29T10:53:39.168Z,1017.6
2019-03-29T10:54:40.541Z,1018.1
2019-03-29T10:55:41.914Z,1018.1
2019-03-29T10:56:43.300Z,1017.5
2019-03-29T10:57:44.678Z,1017.3
2019-03-29T10:58:46.049Z,1017.8
2019-03-29T10:59:47.428Z,1018.1
2019-03-29T11:00:48.807Z,1017.4
2019-03-29T11:01:50.186Z,1017.4
2019-03-29T11:02:51.564Z,1017.4
2019-03-29T11:03:52.930Z,1017.4
2019-03-29T11:04:54.317Z,1017.5
2019-03-29T11:05:55.680Z,1017.5
2019-03-29T11:06:57.079Z,1018.0
2019-03-29T11:07:58.463Z,1017.9
2019-03-29T11:08:59.834Z,1017.9
2019-03-29T11:10:01.203Z,1017.8
2019-03-29T11:11:02.580Z,1017.8
2019-03-29T11:12:03.950Z,1017.8
2019-03-29T11:13:12.520Z,1017.9
2019-03-29T11:14:06.671Z,1018.0
2019-03-29T11:15:08.049Z,1017.8
2019-03-29T11:16:09.438Z,1017.6
2019-03-29T11:17:10.810Z,1017.2
2019-03-29T11:18:12.177Z,1017.8
2019-03-29T11:19:13.588Z,1017.9
2019-03-29T11:20:14.939Z,1017.8
2019-03-29T11:21:16.278Z,1017.6
2019-03-29T11:22:17.648Z,1017.4
2019-03-29T11:23:18.985Z,1018.0
2019-03-29T11:24:20.365Z,1017.5
2019-03-29T11:25:21.734Z,1017.6
2019-03-29T11:26:23.109Z,1017.4
2019-03-29T11:27:24.492Z,1017.3
2019-03-29T11:28:25.866Z,1017.4
2019-03-29T11:29:27.229Z,1017.5
2019-03-29T11:30:41.433Z,1017.4
2019-03-29T11:31:29.959Z,1017.8
2019-03-29T11:32:31.339Z,1017.8
2019-03-29T11:33:32.733Z,1017.7
2019-03-29T11:34:34.126Z,1017.7
2019-03-29T11:35:35.514Z,1017.6
2019-03-29T11:36:36.904Z,1017.5
2019-03-29T11:37:38.283Z,1017.5
2019-03-29T11:38:39.670Z,1017.6
2019-03-29T11:39:41.038Z,1017.5
2019-03-29T11:40:42.417Z,1017.5
2019-03-29T11:41:43.793Z,1017.7
2019-03-29T11:42:45.166Z,1017.0
2019-03-29T11:43:46.543Z,1017.5
2019-03-29T11:44:47.925Z,1017.2
2019-03-29T11:45:49.299Z,1016.9
2019-03-29T11:46:50.674Z,1017.1
2019-03-29T11:47:52.044Z,1017.5
2019-03-29T11:48:53.427Z,1017.5
2019-03-29T11:49:54.795Z,1017.5
2019-03-29T11:50:56.179Z,1016.9
2019-03-29T11:51:57.635Z,1017.5
2019-03-29T11:52:59.000Z,1017.4
2019-03-29T11:54:00.379Z,1017.0
2019-03-29T11:55:01.749Z,1017.0
2019-03-29T11:56:03.128Z,1017.0
2019-03-29T11:57:04.500Z,1016.9
2019-03-29T11:58:05.885Z,1016.9
2019-03-29T11:59:07.268Z,1017.1
2019-03-29T12:00:08.630Z,1016.9
2019-03-29T12:01:10.003Z,1017.0
2019-03-29T12:02:11.376Z,1017.1
2019-03-29T12:03:12.749Z,1017.0
2019-03-29T12:04:14.134Z,1017.0
2019-03-29T12:05:15.502Z,1016.9
2019-03-29T12:06:16.875Z,1017.0
2019-03-29T12:07:18.244Z,1017.0
2019-03-29T12:08:19.609Z,1017.6
2019-03-29T12:09:20.984Z,1017.5
2019-03-29T12:10:22.366Z,1017.4
2019-03-29T12:11:23.744Z,1017.4
2019-03-29T12:12:27.450Z,1016.9
2019-03-29T12:13:35.079Z,1017.3
2019-03-29T12:14:27.809Z,1017.3
2019-03-29T12:15:29.194Z,1017.2
2019-03-29T12:16:30.559Z,1017.3
2019-03-29T12:17:31.931Z,1017.1
2019-03-29T12:18:33.376Z,1017.3
2019-03-29T12:19:34.744Z,1017.2
2019-03-29T12:20:36.116Z,1017.1
2019-03-29T12:21:37.500Z,1017.2
2019-03-29T12:22:38.875Z,1017.1
2019-03-29T12:23:40.252Z,1017.0
2019-03-29T12:24:41.619Z,1016.8
2019-03-29T12:25:42.995Z,1016.7
2019-03-29T12:26:44.378Z,1016.6
2019-03-29T12:27:45.755Z,1016.6
2019-03-29T12:28:47.135Z,1016.7
2019-03-29T12:29:48.507Z,1016.8
2019-03-29T12:30:49.879Z,1016.7
2019-03-29T12:31:51.256Z,1016.7
2019-03-29T12:32:52.631Z,1016.6
2019-03-29T12:33:54.025Z,1016.6
2019-03-29T12:34:55.424Z,1016.6
2019-03-29T12:35:56.802Z,1017.1
2019-03-29T12:36:58.167Z,1016.9
2019-03-29T12:37:59.540Z,1016.5
2019-03-29T12:39:00.928Z,1016.5
2019-03-29T12:40:02.306Z,1016.5
2019-03-29T12:41:03.675Z,1016.5
2019-03-29T12:42:05.042Z,1016.5
2019-03-29T12:43:06.421Z,1016.4
2019-03-29T12:44:07.794Z,1016.7
2019-03-29T12:45:09.164Z,1016.4
2019-03-29T12:46:10.538Z,1016.5